Time;durP1;ratioP1;P1;durP2;ratioP2;P2;SDS_P1;SDS_P2;PMS_P1;PMS_P2;Temp;Humidity;BMP_temperature;BMP_pressure;BME280_temperature;BME280_humidity;BME280_pressure;Samples;Min_cycle;Max_cycle;Signal;HPM_P1;HPM_P2
2022/05/18 00:00:05;;;;;;;5.03;2.05;;;;;;;;;;5050648;28;20631;-67
2022/05/18 00:02:30;;;;;;;8.55;2.25;;;;;;;;;;5049363;28;20017;-66
2022/05/18 00:04:56;;;;;;;9.93;2.38;;;;;;;;;;5049022;28;20099;-66
2022/05/18 00:07:21;;;;;;;5.40;3.07;;;;;;;;;;5050162;28;20528;-66
2022/05/18 00:09:46;;;;;;;10.48;2.47;;;;;;;;;;5050467;28;20324;-66
2022/05/18 00:12:11;;;;;;;7.90;2.50;;;;;;;;;;5049940;28;20017;-66
2022/05/18 00:14:37;;;;;;;7.73;2.37;;;;;;;;;;5049721;28;20280;-67
2022/05/18 00:17:04;;;;;;;6.13;2.22;;;;;;;;;;5049071;28;20730;-67
2022/05/18 00:19:30;;;;;;;5.72;2.17;;;;;;;;;;5049314;28;20082;-66
2022/05/18 00:21:55;;;;;;;9.13;2.55;;;;;;;;;;5049579;28;20467;-67
2022/05/18 00:24:21;;;;;;;4.60;1.92;;;;;;;;;;5031618;28;20021;-66
2022/05/18 00:26:46;;;;;;;5.43;2.05;;;;;;;;;;5050229;28;20028;-66
2022/05/18 00:29:11;;;;;;;4.07;2.28;;;;;;;;;;5049479;28;20466;-67
2022/05/18 00:31:36;;;;;;;9.63;2.63;;;;;;;;;;5049866;28;20119;-66
2022/05/18 00:34:01;;;;;;;6.40;1.90;;;;;;;;;;5050060;28;20275;-67
2022/05/18 00:36:27;;;;;;;7.03;2.40;;;;;;;;;;5049867;28;20029;-66
2022/05/18 00:38:52;;;;;;;6.83;3.00;;;;;;;;;;5049622;28;20020;-67
2022/05/18 00:41:19;;;;;;;8.00;2.37;;;;;;;;;;5049969;28;20104;-66
2022/05/18 00:43:45;;;;;;;5.00;1.85;;;;;;;;;;5047587;28;21583;-66
2022/05/18 00:46:12;;;;;;;5.65;1.92;;;;;;;;;;5047006;28;20112;-66
2022/05/18 00:48:37;;;;;;;7.47;2.20;;;;;;;;;;5049441;28;20032;-67
2022/05/18 00:51:04;;;;;;;10.90;2.20;;;;;;;;;;5048643;28;20032;-68
2022/05/18 00:53:42;;;;;;;3.72;1.95;;;;;;;;;;5049540;28;20023;-66
2022/05/18 00:56:09;;;;;;;9.25;3.45;;;;;;;;;;5049372;28;20565;-66
2022/05/18 00:58:40;;;;;;;5.32;2.05;;;;;;;;;;5048853;28;20029;-66
2022/05/18 01:01:07;;;;;;;7.18;2.28;;;;;;;;;;5048890;28;20020;-66
2022/05/18 01:03:35;;;;;;;5.57;2.53;;;;;;;;;;5049440;28;20053;-67
2022/05/18 01:06:09;;;;;;;2.63;1.90;;;;;;;;;;5048914;28;20048;-67
2022/05/18 01:08:38;;;;;;;8.20;2.47;;;;;;;;;;5050151;28;20099;-66
2022/05/18 01:11:03;;;;;;;9.57;2.92;;;;;;;;;;5051936;28;20091;-67
2022/05/18 01:13:28;;;;;;;8.17;2.23;;;;;;;;;;5053089;28;20470;-68
2022/05/18 01:15:55;;;;;;;7.90;3.20;;;;;;;;;;5053347;28;20341;-66
2022/05/18 01:18:20;;;;;;;8.45;3.00;;;;;;;;;;5051419;28;20612;-66
2022/05/18 01:20:46;;;;;;;4.63;2.20;;;;;;;;;;5052323;28;20025;-67
2022/05/18 01:23:29;;;;;;;4.03;2.22;;;;;;;;;;5050834;28;20349;-67
2022/05/18 01:25:54;;;;;;;3.90;2.13;;;;;;;;;;5047528;28;20024;-66
2022/05/18 01:28:20;;;;;;;7.35;2.75;;;;;;;;;;5053020;28;20013;-67
2022/05/18 01:30:47;;;;;;;5.10;2.60;;;;;;;;;;5051699;28;20025;-67
2022/05/18 01:33:13;;;;;;;7.18;2.42;;;;;;;;;;5051722;28;20024;-66
2022/05/18 01:35:40;;;;;;;5.03;2.05;;;;;;;;;;5052178;28;20120;-66
2022/05/18 01:38:06;;;;;;;7.22;2.35;;;;;;;;;;5053642;28;20017;-66
2022/05/18 01:40:40;;;;;;;5.32;2.45;;;;;;;;;;5052013;28;20025;-66
2022/05/18 01:43:27;;;;;;;4.70;2.50;;;;;;;;;;5052488;28;20473;-66
2022/05/18 01:45:54;;;;;;;10.60;2.13;;;;;;;;;;5052094;28;20473;-66
2022/05/18 01:48:20;;;;;;;8.57;2.58;;;;;;;;;;5053626;28;20051;-67
2022/05/18 01:50:47;;;;;;;6.63;3.08;;;;;;;;;;5051516;28;20028;-66
2022/05/18 01:53:12;;;;;;;6.72;2.45;;;;;;;;;;5052233;28;20025;-66
2022/05/18 01:55:37;;;;;;;6.50;2.53;;;;;;;;;;5051561;28;20466;-66
2022/05/18 01:58:03;;;;;;;7.63;2.78;;;;;;;;;;5035444;28;20279;-67
2022/05/18 02:00:29;;;;;;;5.75;2.67;;;;;;;;;;5052636;28;20021;-66
2022/05/18 02:02:54;;;;;;;7.45;3.22;;;;;;;;;;5048928;28;20730;-67
2022/05/18 02:05:19;;;;;;;7.30;2.75;;;;;;;;;;5051531;28;20031;-66
2022/05/18 02:07:45;;;;;;;8.63;2.65;;;;;;;;;;5053414;28;20020;-66
2022/05/18 02:10:11;;;;;;;5.60;2.60;;;;;;;;;;5048480;28;20100;-66
2022/05/18 02:12:36;;;;;;;6.97;2.55;;;;;;;;;;5044738;28;20273;-66
2022/05/18 02:15:03;;;;;;;6.70;2.10;;;;;;;;;;5051977;28;20114;-67
2022/05/18 02:17:29;;;;;;;6.95;2.75;;;;;;;;;;5051401;28;20029;-66
2022/05/18 02:19:55;;;;;;;7.45;2.45;;;;;;;;;;5048663;28;20521;-66
2022/05/18 02:22:20;;;;;;;9.45;2.65;;;;;;;;;;5051158;28;20017;-66
2022/05/18 02:24:46;;;;;;;6.23;2.53;;;;;;;;;;5051800;28;20404;-67
2022/05/18 02:27:11;;;;;;;5.43;2.97;;;;;;;;;;5052466;28;20275;-66
2022/05/18 02:29:36;;;;;;;6.22;2.72;;;;;;;;;;5052215;28;20023;-67
2022/05/18 02:32:02;;;;;;;5.97;2.77;;;;;;;;;;5051689;28;20083;-67
2022/05/18 02:34:27;;;;;;;5.13;2.72;;;;;;;;;;5051474;28;20284;-66
2022/05/18 02:36:52;;;;;;;8.60;2.90;;;;;;;;;;5051960;28;20052;-66
2022/05/18 02:39:20;;;;;;;5.75;2.53;;;;;;;;;;5052029;28;20021;-66
2022/05/18 02:41:46;;;;;;;5.63;2.70;;;;;;;;;;5050803;28;20021;-66
2022/05/18 02:44:11;;;;;;;4.97;2.90;;;;;;;;;;5052445;28;20393;-67
2022/05/18 02:46:36;;;;;;;6.07;2.60;;;;;;;;;;5049590;28;20036;-66
2022/05/18 02:49:02;;;;;;;8.90;2.63;;;;;;;;;;5052560;28;20331;-66
2022/05/18 02:51:27;;;;;;;8.33;2.53;;;;;;;;;;5050855;28;20628;-66
2022/05/18 02:53:52;;;;;;;6.03;2.75;;;;;;;;;;5052537;28;20255;-67
2022/05/18 02:56:23;;;;;;;4.33;2.40;;;;;;;;;;5049789;28;20413;-66
2022/05/18 02:58:49;;;;;;;7.35;2.97;;;;;;;;;;5051086;28;20298;-67
2022/05/18 03:01:16;;;;;;;5.82;3.03;;;;;;;;;;5051119;28;20386;-67
2022/05/18 03:03:41;;;;;;;10.77;2.80;;;;;;;;;;5052053;28;20086;-67
2022/05/18 03:06:07;;;;;;;6.07;3.10;;;;;;;;;;5049934;28;20100;-66
2022/05/18 03:08:34;;;;;;;10.07;2.80;;;;;;;;;;5052091;28;20024;-66
2022/05/18 03:10:59;;;;;;;5.72;2.83;;;;;;;;;;5051339;28;20024;-67
2022/05/18 03:13:24;;;;;;;7.40;2.83;;;;;;;;;;5050465;28;20397;-66
2022/05/18 03:15:49;;;;;;;11.40;2.97;;;;;;;;;;5050120;28;20029;-66
2022/05/18 03:18:15;;;;;;;6.25;2.90;;;;;;;;;;5051964;28;20251;-66
2022/05/18 03:23:33;;;;;;;10.30;2.97;;;;;;;;;;5047125;28;20513;-67
2022/05/18 03:25:59;;;;;;;4.72;2.65;;;;;;;;;;5094388;23;20037;-69
2022/05/18 03:28:24;;;;;;;5.82;2.15;;;;;;;;;;5050405;28;20465;-70
2022/05/18 03:30:49;;;;;;;6.93;2.90;;;;;;;;;;5050262;28;20024;-70
2022/05/18 03:33:15;;;;;;;7.67;2.93;;;;;;;;;;5051084;28;20029;-70
2022/05/18 03:35:40;;;;;;;4.43;2.57;;;;;;;;;;5051553;28;20282;-70
2022/05/18 03:38:05;;;;;;;9.57;3.40;;;;;;;;;;5060660;28;20048;-70
2022/05/18 03:40:31;;;;;;;8.05;2.85;;;;;;;;;;5044491;28;20294;-70
2022/05/18 03:42:56;;;;;;;16.42;3.30;;;;;;;;;;5054485;28;20103;-70
2022/05/18 03:45:22;;;;;;;6.53;2.93;;;;;;;;;;5055938;28;20109;-70
2022/05/18 03:47:47;;;;;;;8.57;2.87;;;;;;;;;;5061302;28;20082;-70
2022/05/18 03:50:13;;;;;;;9.43;2.90;;;;;;;;;;5060018;28;20271;-70
2022/05/18 03:52:38;;;;;;;10.27;3.20;;;;;;;;;;5059528;28;20643;-70
2022/05/18 03:55:03;;;;;;;10.82;3.53;;;;;;;;;;5052951;28;20487;-69
2022/05/18 03:57:28;;;;;;;6.18;2.75;;;;;;;;;;5055523;28;20020;-71
2022/05/18 03:59:53;;;;;;;12.43;3.17;;;;;;;;;;5061281;28;20060;-69
2022/05/18 04:02:19;;;;;;;6.90;3.00;;;;;;;;;;5049275;28;20092;-69
2022/05/18 04:04:44;;;;;;;5.05;2.55;;;;;;;;;;5046547;28;20752;-70
2022/05/18 04:07:09;;;;;;;6.75;2.60;;;;;;;;;;5060171;28;20020;-70
2022/05/18 04:09:34;;;;;;;6.00;2.80;;;;;;;;;;5048543;28;20066;-71
2022/05/18 04:12:01;;;;;;;6.82;2.80;;;;;;;;;;5055593;28;20146;-71
2022/05/18 04:14:26;;;;;;;7.28;3.00;;;;;;;;;;5056852;28;20044;-71
2022/05/18 04:16:51;;;;;;;5.40;2.88;;;;;;;;;;5058752;28;20083;-70
2022/05/18 04:19:17;;;;;;;4.67;3.00;;;;;;;;;;5057259;28;20028;-71
2022/05/18 04:21:42;;;;;;;5.18;3.17;;;;;;;;;;5056396;28;20085;-71
2022/05/18 04:24:07;;;;;;;9.40;3.22;;;;;;;;;;5050484;28;20013;-71
2022/05/18 04:26:32;;;;;;;7.57;3.03;;;;;;;;;;5053537;28;20121;-71
2022/05/18 04:28:58;;;;;;;10.73;3.30;;;;;;;;;;5057123;28;20143;-71
2022/05/18 04:31:23;;;;;;;8.32;3.38;;;;;;;;;;5058836;28;20381;-71
2022/05/18 04:33:48;;;;;;;7.30;2.63;;;;;;;;;;5054909;28;20108;-70
2022/05/18 04:36:13;;;;;;;6.30;2.67;;;;;;;;;;5052259;28;20017;-69
2022/05/18 04:38:38;;;;;;;11.15;3.00;;;;;;;;;;5047061;28;20025;-69
2022/05/18 04:41:04;;;;;;;5.60;2.85;;;;;;;;;;5052124;28;20017;-69
2022/05/18 04:43:32;;;;;;;7.82;3.00;;;;;;;;;;5061033;28;20029;-70
2022/05/18 04:45:57;;;;;;;5.28;2.88;;;;;;;;;;5056211;28;20012;-69
2022/05/18 04:48:24;;;;;;;6.33;2.50;;;;;;;;;;5057290;28;20024;-71
2022/05/18 04:50:49;;;;;;;5.82;2.75;;;;;;;;;;5051293;28;20028;-69
2022/05/18 04:53:15;;;;;;;7.30;2.95;;;;;;;;;;5047085;28;20028;-70
2022/05/18 04:55:40;;;;;;;6.45;2.70;;;;;;;;;;5054713;28;20024;-70
2022/05/18 04:58:06;;;;;;;9.88;2.70;;;;;;;;;;5055740;28;20031;-70
2022/05/18 05:00:31;;;;;;;12.27;2.77;;;;;;;;;;5055495;28;20033;-71
2022/05/18 05:02:57;;;;;;;6.93;3.30;;;;;;;;;;5051278;28;20336;-71
2022/05/18 05:05:23;;;;;;;7.20;3.35;;;;;;;;;;5058303;28;20108;-71
2022/05/18 05:07:49;;;;;;;9.52;3.30;;;;;;;;;;5053410;28;20071;-71
2022/05/18 05:10:15;;;;;;;10.00;3.13;;;;;;;;;;5039115;28;20088;-71
2022/05/18 05:12:40;;;;;;;4.70;2.97;;;;;;;;;;5042716;28;20477;-71
2022/05/18 05:15:07;;;;;;;6.85;2.80;;;;;;;;;;5046770;28;20049;-71
2022/05/18 05:17:32;;;;;;;10.23;2.72;;;;;;;;;;5023497;28;20031;-71
2022/05/18 05:19:59;;;;;;;8.93;3.13;;;;;;;;;;5040254;28;20029;-71
2022/05/18 05:22:24;;;;;;;6.57;2.92;;;;;;;;;;5052534;28;20760;-71
2022/05/18 05:24:49;;;;;;;25.15;3.50;;;;;;;;;;5048857;28;20021;-71
2022/05/18 05:27:14;;;;;;;8.05;2.92;;;;;;;;;;5053905;28;20536;-71
2022/05/18 05:29:39;;;;;;;15.53;4.30;;;;;;;;;;5054370;28;20465;-71
2022/05/18 05:32:06;;;;;;;10.03;3.13;;;;;;;;;;5053033;28;20282;-71
2022/05/18 05:34:31;;;;;;;12.90;3.17;;;;;;;;;;5055004;28;20358;-71
2022/05/18 05:36:56;;;;;;;25.57;5.07;;;;;;;;;;5064089;28;20103;-71
2022/05/18 05:39:21;;;;;;;20.13;4.93;;;;;;;;;;5052096;28;20298;-71
2022/05/18 05:41:46;;;;;;;18.07;3.97;;;;;;;;;;5057840;28;20279;-71
2022/05/18 05:44:13;;;;;;;7.90;2.83;;;;;;;;;;5053280;28;20031;-71
2022/05/18 05:46:38;;;;;;;7.63;2.90;;;;;;;;;;5047399;28;20024;-71
2022/05/18 05:49:03;;;;;;;5.43;2.27;;;;;;;;;;5043679;28;20017;-71
2022/05/18 05:51:28;;;;;;;6.20;2.90;;;;;;;;;;5051040;28;20112;-71
2022/05/18 05:53:53;;;;;;;11.37;2.80;;;;;;;;;;5046363;28;20494;-71
2022/05/18 05:56:19;;;;;;;5.38;2.80;;;;;;;;;;5052080;28;20350;-71
2022/05/18 05:58:45;;;;;;;9.45;3.08;;;;;;;;;;5051997;28;20070;-71
2022/05/18 06:01:12;;;;;;;8.80;3.78;;;;;;;;;;5059554;28;20040;-71
2022/05/18 06:03:37;;;;;;;6.95;2.90;;;;;;;;;;5051001;28;20555;-71
2022/05/18 06:06:03;;;;;;;7.88;2.47;;;;;;;;;;5055742;28;20107;-71
2022/05/18 06:08:30;;;;;;;8.07;2.42;;;;;;;;;;5064938;28;20021;-71
2022/05/18 06:10:56;;;;;;;8.80;2.58;;;;;;;;;;5060819;28;20009;-71
2022/05/18 06:13:21;;;;;;;7.38;1.98;;;;;;;;;;5056979;28;20047;-71
2022/05/18 06:15:47;;;;;;;5.68;2.55;;;;;;;;;;5058247;28;20029;-71
2022/05/18 06:18:13;;;;;;;10.18;2.80;;;;;;;;;;5050158;28;20044;-71
2022/05/18 06:20:38;;;;;;;8.73;3.23;;;;;;;;;;5059024;28;20478;-71
2022/05/18 06:23:06;;;;;;;8.40;2.53;;;;;;;;;;5056276;28;20079;-71
2022/05/18 06:25:32;;;;;;;4.82;2.50;;;;;;;;;;5053832;28;20317;-71
2022/05/18 06:27:57;;;;;;;7.03;2.58;;;;;;;;;;5057752;28;20025;-71
2022/05/18 06:30:22;;;;;;;11.90;3.10;;;;;;;;;;5053834;28;20450;-70
2022/05/18 06:32:47;;;;;;;6.53;2.83;;;;;;;;;;5053118;28;20357;-70
2022/05/18 06:35:12;;;;;;;12.37;2.27;;;;;;;;;;5061171;28;20075;-70
2022/05/18 06:37:38;;;;;;;5.67;1.47;;;;;;;;;;5063705;28;20798;-70
2022/05/18 06:40:04;;;;;;;4.10;1.85;;;;;;;;;;5063205;28;20370;-70
2022/05/18 06:42:29;;;;;;;5.38;2.75;;;;;;;;;;5068643;28;20021;-70
2022/05/18 06:44:54;;;;;;;10.10;2.47;;;;;;;;;;5049420;28;20021;-70
2022/05/18 06:47:19;;;;;;;3.22;1.80;;;;;;;;;;5048479;28;20033;-70
2022/05/18 06:49:46;;;;;;;7.07;1.60;;;;;;;;;;5059225;28;20028;-70
2022/05/18 06:52:12;;;;;;;6.57;2.75;;;;;;;;;;5069390;28;20021;-70
2022/05/18 06:54:38;;;;;;;6.75;2.30;;;;;;;;;;5072036;28;20370;-70
2022/05/18 06:57:03;;;;;;;5.20;2.20;;;;;;;;;;5071499;28;20212;-70
2022/05/18 06:59:29;;;;;;;4.28;1.83;;;;;;;;;;5055295;28;20025;-70
2022/05/18 07:01:54;;;;;;;7.43;2.10;;;;;;;;;;5052259;28;20021;-70
2022/05/18 07:04:19;;;;;;;4.33;1.73;;;;;;;;;;5052068;28;20033;-70
2022/05/18 07:06:45;;;;;;;2.87;1.87;;;;;;;;;;5051663;28;20043;-70
2022/05/18 07:09:14;;;;;;;5.38;2.15;;;;;;;;;;5051482;28;20738;-69
2022/05/18 07:11:40;;;;;;;3.08;1.50;;;;;;;;;;5051190;28;20019;-70
2022/05/18 07:14:05;;;;;;;10.25;1.90;;;;;;;;;;5051195;28;20021;-70
2022/05/18 07:16:31;;;;;;;8.02;1.90;;;;;;;;;;5045332;28;20100;-69
2022/05/18 07:18:57;;;;;;;9.50;2.17;;;;;;;;;;5061971;28;20028;-70
2022/05/18 07:21:23;;;;;;;7.65;1.83;;;;;;;;;;5048025;28;20020;-69
2022/05/18 07:23:48;;;;;;;5.00;2.17;;;;;;;;;;5046626;28;20128;-70
2022/05/18 07:26:14;;;;;;;4.15;1.95;;;;;;;;;;5043767;28;20824;-70
2022/05/18 07:28:39;;;;;;;2.42;1.02;;;;;;;;;;5049944;28;20025;-71
2022/05/18 07:31:05;;;;;;;6.70;2.63;;;;;;;;;;5050047;28;21539;-71
2022/05/18 07:33:30;;;;;;;6.72;2.80;;;;;;;;;;5050061;28;20389;-71
2022/05/18 07:35:56;;;;;;;4.83;1.70;;;;;;;;;;5064585;28;20074;-71
2022/05/18 07:38:26;;;;;;;8.82;2.30;;;;;;;;;;5056688;28;20321;-71
2022/05/18 07:40:52;;;;;;;4.30;1.77;;;;;;;;;;5054481;28;20070;-71
2022/05/18 07:43:20;;;;;;;3.97;1.73;;;;;;;;;;5058385;28;20021;-71
2022/05/18 07:45:45;;;;;;;11.52;2.05;;;;;;;;;;5049490;28;20018;-71
2022/05/18 07:48:11;;;;;;;4.00;2.00;;;;;;;;;;5054336;28;20017;-71
2022/05/18 07:50:36;;;;;;;3.73;1.77;;;;;;;;;;5054523;28;20043;-71
2022/05/18 07:53:01;;;;;;;3.38;1.75;;;;;;;;;;5054559;28;20267;-71
2022/05/18 07:55:27;;;;;;;5.50;2.00;;;;;;;;;;5050687;28;20127;-72
2022/05/18 07:57:52;;;;;;;4.47;1.77;;;;;;;;;;5053951;28;20627;-72
2022/05/18 08:00:18;;;;;;;5.30;2.08;;;;;;;;;;5053667;28;20086;-72
2022/05/18 08:02:43;;;;;;;5.68;1.90;;;;;;;;;;5048344;28;20037;-71
2022/05/18 08:05:09;;;;;;;3.38;1.20;;;;;;;;;;5045712;28;20028;-72
2022/05/18 08:07:34;;;;;;;7.40;2.25;;;;;;;;;;5058145;28;20044;-71
2022/05/18 08:15:27;;;;;;;7.90;1.90;;;;;;;;;;5054940;28;20043;-71
2022/05/18 08:17:52;;;;;;;4.43;2.05;;;;;;;;;;5050486;28;20017;-71
2022/05/18 08:20:20;;;;;;;5.07;2.47;;;;;;;;;;5047724;28;20115;-71
2022/05/18 08:22:45;;;;;;;5.38;1.50;;;;;;;;;;5057214;28;20640;-71
2022/05/18 08:25:11;;;;;;;7.95;2.65;;;;;;;;;;5057717;28;20465;-71
2022/05/18 08:27:40;;;;;;;3.60;1.88;;;;;;;;;;5064021;28;20024;-71
2022/05/18 08:30:06;;;;;;;3.67;2.15;;;;;;;;;;5058978;28;20096;-71
2022/05/18 08:32:32;;;;;;;11.77;1.95;;;;;;;;;;5049904;28;20175;-71
2022/05/18 08:34:57;;;;;;;3.08;1.90;;;;;;;;;;5049234;28;20533;-71
2022/05/18 08:37:22;;;;;;;7.77;2.10;;;;;;;;;;5057546;28;20024;-71
2022/05/18 08:39:48;;;;;;;4.80;2.20;;;;;;;;;;5056153;28;20758;-71
2022/05/18 08:42:14;;;;;;;3.92;1.52;;;;;;;;;;5042597;28;20422;-72
2022/05/18 08:44:40;;;;;;;4.05;1.63;;;;;;;;;;5046260;28;20021;-71
2022/05/18 08:47:16;;;;;;;5.20;1.88;;;;;;;;;;5046207;28;20040;-71
2022/05/18 08:49:46;;;;;;;6.32;1.70;;;;;;;;;;5053095;28;20032;-71
2022/05/18 08:52:30;;;;;;;7.03;2.20;;;;;;;;;;5055336;28;20118;-71
2022/05/18 08:55:14;;;;;;;6.85;1.80;;;;;;;;;;5053458;28;20028;-71
2022/05/18 08:57:41;;;;;;;6.93;1.95;;;;;;;;;;5048867;28;20029;-71
2022/05/18 09:00:13;;;;;;;6.57;1.83;;;;;;;;;;5056637;28;20504;-71
2022/05/18 09:02:39;;;;;;;2.90;1.70;;;;;;;;;;5053787;28;20021;-71
2022/05/18 09:05:05;;;;;;;2.85;1.67;;;;;;;;;;5046273;28;20052;-71
2022/05/18 09:07:36;;;;;;;4.95;1.60;;;;;;;;;;5054780;28;20033;-71
2022/05/18 09:10:22;;;;;;;8.68;2.17;;;;;;;;;;5049634;28;20024;-71
2022/05/18 09:12:49;;;;;;;1.67;1.13;;;;;;;;;;5042692;28;20102;-71
2022/05/18 09:15:17;;;;;;;6.20;1.98;;;;;;;;;;5055117;28;20499;-71
2022/05/18 09:18:06;;;;;;;5.22;1.90;;;;;;;;;;5054606;28;20401;-71
2022/05/18 09:20:37;;;;;;;7.43;1.55;;;;;;;;;;5052870;28;20064;-71
2022/05/18 09:23:11;;;;;;;4.45;2.22;;;;;;;;;;5048926;28;20455;-71
2022/05/18 09:25:57;;;;;;;5.95;1.80;;;;;;;;;;5073785;23;20615;-67
2022/05/18 09:28:30;;;;;;;6.40;1.70;;;;;;;;;;5039097;28;20529;-67
2022/05/18 09:30:55;;;;;;;1.33;1.17;;;;;;;;;;5039090;28;20041;-67
2022/05/18 09:33:20;;;;;;;3.53;1.97;;;;;;;;;;5044280;28;20064;-67
2022/05/18 09:35:45;;;;;;;7.72;2.13;;;;;;;;;;5046393;28;20028;-67
2022/05/18 09:38:15;;;;;;;4.47;1.25;;;;;;;;;;5052380;28;20104;-67
2022/05/18 09:40:41;;;;;;;;;;;;;;;;;;5033544;28;20029;-67
2022/05/18 09:43:27;;;;;;;7.97;1.65;;;;;;;;;;5050309;28;19913;-67
2022/05/18 09:45:54;;;;;;;13.35;3.63;;;;;;;;;;5050880;28;20116;-67
2022/05/18 09:48:29;;;;;;;4.45;2.10;;;;;;;;;;5051170;28;20013;-67
2022/05/18 09:50:55;;;;;;;5.07;1.65;;;;;;;;;;5046477;28;20469;-67
2022/05/18 09:53:21;;;;;;;3.50;1.75;;;;;;;;;;5052521;28;20819;-67
2022/05/18 09:55:48;;;;;;;2.63;1.60;;;;;;;;;;5051952;28;20029;-67
2022/05/18 09:58:17;;;;;;;5.07;2.67;;;;;;;;;;5034480;28;20276;-67
2022/05/18 10:00:43;;;;;;;7.75;2.58;;;;;;;;;;5034298;28;20078;-67
2022/05/18 10:08:44;;;;;;;3.92;1.80;;;;;;;;;;5050997;28;20528;-67
2022/05/18 10:11:14;;;;;;;8.88;1.60;;;;;;;;;;5052992;28;20021;-67
2022/05/18 10:14:02;;;;;;;5.05;1.60;;;;;;;;;;5051704;28;20028;-67
2022/05/18 10:16:36;;;;;;;4.97;1.65;;;;;;;;;;5007087;28;20055;-67
2022/05/18 10:19:02;;;;;;;4.20;1.77;;;;;;;;;;5050295;28;20029;-67
2022/05/18 10:21:48;;;;;;;3.08;1.60;;;;;;;;;;5053134;28;20058;-67
2022/05/18 10:24:33;;;;;;;2.33;1.38;;;;;;;;;;5051479;28;20029;-67
2022/05/18 10:27:08;;;;;;;4.63;1.20;;;;;;;;;;5035358;28;20505;-67
2022/05/18 10:29:33;;;;;;;5.93;1.60;;;;;;;;;;5051122;28;20239;-67
2022/05/18 10:32:07;;;;;;;2.37;1.50;;;;;;;;;;5050124;28;20385;-67
2022/05/18 10:34:40;;;;;;;2.50;1.10;;;;;;;;;;5048748;28;20418;-67
2022/05/18 10:37:09;;;;;;;3.92;1.50;;;;;;;;;;5049001;28;20021;-68
2022/05/18 10:39:39;;;;;;;7.30;1.90;;;;;;;;;;5050276;28;20031;-68
2022/05/18 10:42:08;;;;;;;3.25;1.27;;;;;;;;;;5050541;28;20381;-67
2022/05/18 10:44:34;;;;;;;4.15;1.55;;;;;;;;;;5050927;28;20025;-68
2022/05/18 10:47:11;;;;;;;10.63;1.35;;;;;;;;;;5047939;28;20107;-67
2022/05/18 10:49:36;;;;;;;5.22;1.23;;;;;;;;;;5050755;28;20451;-68
2022/05/18 10:52:28;;;;;;;3.55;1.50;;;;;;;;;;5051968;28;20009;-67
2022/05/18 10:54:56;;;;;;;3.30;1.40;;;;;;;;;;5042400;28;20041;-68
2022/05/18 10:57:28;;;;;;;3.08;1.20;;;;;;;;;;5045750;28;20415;-68
2022/05/18 10:59:56;;;;;;;4.10;1.52;;;;;;;;;;5050087;28;20469;-68
2022/05/18 11:02:29;;;;;;;3.67;1.35;;;;;;;;;;5050704;28;20025;-67
2022/05/18 11:05:17;;;;;;;3.80;1.77;;;;;;;;;;5049617;28;20020;-68
2022/05/18 11:07:43;;;;;;;2.78;1.50;;;;;;;;;;5012836;28;20037;-68
2022/05/18 11:10:08;;;;;;;2.75;1.30;;;;;;;;;;5050405;28;20048;-68
2022/05/18 11:12:39;;;;;;;7.03;1.40;;;;;;;;;;5050908;28;20057;-69
2022/05/18 11:15:07;;;;;;;2.20;1.25;;;;;;;;;;5050059;28;20032;-69
2022/05/18 11:17:41;;;;;;;2.70;1.15;;;;;;;;;;5051191;28;20067;-69
2022/05/18 11:20:26;;;;;;;3.63;1.20;;;;;;;;;;5049771;28;20037;-68
2022/05/18 11:23:13;;;;;;;2.13;1.25;;;;;;;;;;5049945;28;20043;-68
2022/05/18 11:26:03;;;;;;;5.45;1.45;;;;;;;;;;5048196;28;20393;-68
2022/05/18 11:28:40;;;;;;;2.10;1.08;;;;;;;;;;5033743;28;20501;-68
2022/05/18 11:31:11;;;;;;;4.90;1.20;;;;;;;;;;5049080;28;20389;-68
2022/05/18 11:33:44;;;;;;;1.65;1.30;;;;;;;;;;5050378;28;20027;-68
2022/05/18 11:36:10;;;;;;;2.30;1.02;;;;;;;;;;5046281;28;20227;-68
2022/05/18 11:38:58;;;;;;;1.10;1.00;;;;;;;;;;5049007;28;20082;-68
2022/05/18 11:41:23;;;;;;;2.30;1.27;;;;;;;;;;4992890;28;20111;-68
2022/05/18 11:43:54;;;;;;;1.95;1.13;;;;;;;;;;5049969;28;20465;-68
2022/05/18 11:46:27;;;;;;;5.72;1.80;;;;;;;;;;5048137;28;20457;-68
2022/05/18 11:48:58;;;;;;;1.40;1.00;;;;;;;;;;5049004;28;20052;-68
2022/05/18 11:51:36;;;;;;;2.35;1.10;;;;;;;;;;5049296;28;20052;-69
2022/05/18 11:54:19;;;;;;;1.42;0.90;;;;;;;;;;5047532;28;20020;-68
2022/05/18 11:56:56;;;;;;;2.50;1.25;;;;;;;;;;5050718;28;20415;-68
2022/05/18 11:59:51;;;;;;;9.40;1.77;;;;;;;;;;5044886;28;20385;-68
2022/05/18 12:02:35;;;;;;;4.38;1.00;;;;;;;;;;5048159;28;20017;-68
2022/05/18 12:05:07;;;;;;;1.08;0.80;;;;;;;;;;5048651;28;20422;-68
2022/05/18 12:07:44;;;;;;;4.07;0.77;;;;;;;;;;5046985;28;20024;-68
2022/05/18 12:10:09;;;;;;;3.28;1.27;;;;;;;;;;5049809;28;20075;-68
2022/05/18 12:12:46;;;;;;;5.72;1.20;;;;;;;;;;5049961;28;20029;-68
2022/05/18 12:15:31;;;;;;;3.83;1.20;;;;;;;;;;5048161;28;20052;-68
2022/05/18 12:18:00;;;;;;;4.18;1.42;;;;;;;;;;5049383;28;20017;-68
2022/05/18 12:20:28;;;;;;;1.33;0.90;;;;;;;;;;5050408;28;20017;-68
2022/05/18 12:22:55;;;;;;;1.88;0.80;;;;;;;;;;5049130;28;20074;-68
2022/05/18 12:25:21;;;;;;;1.02;0.68;;;;;;;;;;5046844;28;20053;-68
2022/05/18 12:27:48;;;;;;;8.75;1.17;;;;;;;;;;5047049;28;20021;-68
2022/05/18 12:30:15;;;;;;;3.72;0.98;;;;;;;;;;5049501;28;20096;-68
2022/05/18 12:32:41;;;;;;;4.82;1.30;;;;;;;;;;5048018;28;20028;-69
2022/05/18 12:35:17;;;;;;;6.45;1.00;;;;;;;;;;5050118;28;20021;-68
2022/05/18 12:38:01;;;;;;;3.80;1.23;;;;;;;;;;5048361;28;20431;-69
2022/05/18 12:40:45;;;;;;;1.23;1.00;;;;;;;;;;5048212;28;20020;-68
2022/05/18 12:43:25;;;;;;;1.73;1.20;;;;;;;;;;5048545;28;20017;-68
2022/05/18 12:45:55;;;;;;;2.72;1.33;;;;;;;;;;5048111;28;20104;-68
2022/05/18 12:48:30;;;;;;;2.10;1.20;;;;;;;;;;5049354;28;20017;-68
2022/05/18 12:51:14;;;;;;;3.53;1.40;;;;;;;;;;5044940;28;20302;-68
2022/05/18 12:53:55;;;;;;;6.05;1.13;;;;;;;;;;5047727;28;20025;-69
2022/05/18 12:56:46;;;;;;;1.00;0.70;;;;;;;;;;5048022;28;20021;-68
2022/05/18 12:59:19;;;;;;;3.22;1.20;;;;;;;;;;5048093;28;20029;-68
2022/05/18 13:01:46;;;;;;;2.63;1.13;;;;;;;;;;5047242;28;20044;-68
2022/05/18 13:04:14;;;;;;;4.85;1.00;;;;;;;;;;5046515;28;20312;-68
2022/05/18 13:06:43;;;;;;;2.63;1.40;;;;;;;;;;5047808;28;20480;-68
2022/05/18 13:09:33;;;;;;;3.75;1.63;;;;;;;;;;5048999;28;20332;-68
2022/05/18 13:12:27;;;;;;;2.50;1.13;;;;;;;;;;5036092;28;20024;-68
2022/05/18 13:14:59;;;;;;;7.03;1.63;;;;;;;;;;5049080;28;20060;-68
2022/05/18 13:17:39;;;;;;;2.42;1.20;;;;;;;;;;5037735;28;20025;-69
2022/05/18 13:20:14;;;;;;;2.97;1.20;;;;;;;;;;5047705;28;20448;-68
2022/05/18 13:22:45;;;;;;;2.05;1.48;;;;;;;;;;5047078;28;20021;-68
2022/05/18 13:25:10;;;;;;;1.30;0.63;;;;;;;;;;5048029;28;20032;-68
2022/05/18 13:27:35;;;;;;;1.75;0.98;;;;;;;;;;5047109;28;20024;-68
2022/05/18 13:30:03;;;;;;;1.38;0.98;;;;;;;;;;5047537;28;20013;-68
2022/05/18 13:32:30;;;;;;;2.15;0.90;;;;;;;;;;5047644;28;20444;-68
2022/05/18 13:34:58;;;;;;;7.68;1.58;;;;;;;;;;5047522;28;20307;-68
2022/05/18 13:37:24;;;;;;;2.33;1.00;;;;;;;;;;5047538;28;20477;-68
2022/05/18 13:39:49;;;;;;;6.90;1.42;;;;;;;;;;5047840;28;20421;-68
2022/05/18 13:42:19;;;;;;;4.60;1.83;;;;;;;;;;5048666;28;20025;-68
2022/05/18 13:44:45;;;;;;;7.28;1.45;;;;;;;;;;5048785;28;20032;-68
2022/05/18 13:47:11;;;;;;;5.10;1.50;;;;;;;;;;5046695;28;20074;-68
2022/05/18 13:49:40;;;;;;;5.38;1.60;;;;;;;;;;5048215;28;20028;-68
2022/05/18 13:52:07;;;;;;;2.08;1.10;;;;;;;;;;5048683;28;20024;-68
2022/05/18 13:54:36;;;;;;;5.82;2.30;;;;;;;;;;5048027;28;20040;-67
2022/05/18 13:57:03;;;;;;;2.15;1.17;;;;;;;;;;5046206;28;20013;-68
2022/05/18 13:59:30;;;;;;;3.13;1.50;;;;;;;;;;5047009;28;20036;-68
2022/05/18 14:01:57;;;;;;;5.75;1.50;;;;;;;;;;5048263;28;20043;-68
2022/05/18 14:04:42;;;;;;;4.88;1.77;;;;;;;;;;5048670;28;20088;-68
2022/05/18 14:07:08;;;;;;;2.65;1.40;;;;;;;;;;5045024;28;20057;-68
2022/05/18 14:09:41;;;;;;;7.22;1.88;;;;;;;;;;5046702;28;20653;-68
2022/05/18 14:12:12;;;;;;;6.20;1.35;;;;;;;;;;5043474;28;20029;-68
2022/05/18 14:14:38;;;;;;;2.45;1.63;;;;;;;;;;5047416;28;20059;-68
2022/05/18 14:17:08;;;;;;;2.90;1.50;;;;;;;;;;5048043;28;20056;-68
2022/05/18 14:19:43;;;;;;;2.30;1.17;;;;;;;;;;5053111;28;20451;-68
2022/05/18 14:22:12;;;;;;;5.15;1.52;;;;;;;;;;5044351;28;20021;-68
2022/05/18 14:24:41;;;;;;;9.57;1.45;;;;;;;;;;5049554;28;20422;-69
2022/05/18 14:27:10;;;;;;;5.68;1.92;;;;;;;;;;5050831;28;20085;-67
2022/05/18 14:29:38;;;;;;;2.88;1.60;;;;;;;;;;5047514;28;20086;-66
2022/05/18 14:32:04;;;;;;;6.75;1.65;;;;;;;;;;5050671;28;20078;-66
2022/05/18 14:34:39;;;;;;;4.38;1.60;;;;;;;;;;5052498;28;20021;-66
2022/05/18 14:37:11;;;;;;;2.30;0.93;;;;;;;;;;5051167;28;20126;-66
2022/05/18 14:39:37;;;;;;;1.33;0.55;;;;;;;;;;5052598;28;20024;-66
2022/05/18 14:42:03;;;;;;;1.92;1.50;;;;;;;;;;5052417;28;20021;-66
2022/05/18 14:44:49;;;;;;;5.25;1.90;;;;;;;;;;5048964;28;20017;-66
2022/05/18 14:47:26;;;;;;;5.07;1.48;;;;;;;;;;5050949;28;20040;-69
2022/05/18 14:50:15;;;;;;;3.53;1.38;;;;;;;;;;5052289;28;20025;-67
2022/05/18 14:52:42;;;;;;;2.45;1.45;;;;;;;;;;5014473;28;20406;-67
2022/05/18 14:55:09;;;;;;;4.15;1.40;;;;;;;;;;5052317;28;20032;-67
2022/05/18 14:57:35;;;;;;;5.07;1.50;;;;;;;;;;5050766;28;20064;-67
2022/05/18 15:00:03;;;;;;;3.80;1.35;;;;;;;;;;5051280;28;20091;-67
2022/05/18 15:02:30;;;;;;;2.88;1.20;;;;;;;;;;5051873;28;20025;-67
2022/05/18 15:04:58;;;;;;;1.70;1.40;;;;;;;;;;5051314;28;20013;-67